首页
METAR-TAF:

METAR-TAF

机场 :

利伯維爾國際機場

利伯维尔, 加蓬

纬度: 00-27N, 经度: 009-25E, 海拔: 12米

当前天气观测

该预报发布于52分钟前的09:00 UTC
风速7节,风向,在南转南东西南之间变化
温度 27°C
湿度 79%
气压 1014 hPa
能見度: 8000
少量云层高于1000英尺

METAR: FOOL 160900Z 17007KT 160V220 8000 FEW010 27/23 Q1014 NOSIG

时间: 10:52 (09:52 UTC)

预报

该预报发布于4小时和52分钟前的05:00 UTC
预报有效从16日的 06点(UTC)到 17日的 12点(UTC)
风速6节,风向南转南东
能見度: 8000
散云层高于800英尺
多云层高于2600英尺

TAF: FOOL 160500Z 1606/1712 16006KT 8000 SCT008 BKN026

超过4000个机场的气象观测和天气预报(METAR&TAF报告)。

可查询的气象台以黄色和红色小点在地图上表示。

将鼠标移到小点上方,可查看气象台名称。

然后点击查看天气观测和预报。

如需切换地图:点击带黑十字的绿色按钮放大地图;点击带横线的绿色按钮缩小地图;或者点击绿色箭头查看邻近地区的地图。


METAR-TAF: